createdAt,value
2023-05-21T00:00:38.996Z,-38.25
2023-05-21T00:01:42.296Z,-89.45
2023-05-21T00:02:45.584Z,-89.45
2023-05-21T00:03:48.867Z,-63.85
2023-05-21T00:04:52.183Z,-102.25
2023-05-21T00:05:55.760Z,-102.25
2023-05-21T00:06:59.032Z,-51.05
2023-05-21T00:08:02.337Z,-84.33
2023-05-21T00:09:05.630Z,-102.25
2023-05-21T00:10:08.931Z,-63.85
2023-05-21T00:11:12.199Z,-107.37
2023-05-21T00:12:14.504Z,-127.85
2023-05-21T00:13:17.810Z,-107.37
2023-05-21T00:14:21.087Z,-63.85
2023-05-21T00:15:24.379Z,-120.17
2023-05-21T00:16:27.676Z,-176.49
2023-05-21T00:17:30.973Z,-184.17
2023-05-21T00:18:34.264Z,-107.37
2023-05-21T00:19:37.558Z,-184.17
2023-05-21T00:20:40.848Z,-232.81
2023-05-21T00:21:44.143Z,-237.93
2023-05-21T00:22:47.446Z,-220.01
2023-05-21T00:23:50.738Z,-304.49
2023-05-21T00:24:54.015Z,-317.29
2023-05-21T00:25:56.326Z,-51.06
2023-05-21T00:26:59.618Z,-168.82
2023-05-21T00:28:02.909Z,-299.38
2023-05-21T00:29:06.199Z,238.22
2023-05-21T00:30:09.485Z,174.22
2023-05-21T00:31:12.818Z,163.98
2023-05-21T00:32:16.082Z,217.74
2023-05-21T00:33:19.359Z,227.98
2023-05-21T00:34:22.665Z,248.46
2023-05-21T00:35:25.937Z,322.7
2023-05-21T00:36:29.239Z,-299.38
2023-05-21T00:37:32.537Z,2.56
2023-05-21T00:38:35.835Z,-245.62
2023-05-21T00:39:38.152Z,-245.62
2023-05-21T00:40:41.437Z,-235.38
2023-05-21T00:41:44.721Z,-235.38
2023-05-21T00:42:48.008Z,-212.34
2023-05-21T00:43:51.306Z,-107.38
2023-05-21T00:44:54.603Z,2.56
2023-05-21T00:45:57.903Z,-51.06
2023-05-21T00:47:01.196Z,-278.9
2023-05-21T00:48:04.480Z,-107.38
2023-05-21T00:49:07.772Z,-45.94
2023-05-21T00:50:11.059Z,10.39
2023-05-21T00:51:14.336Z,-56.18
2023-05-21T00:52:17.660Z,28.31
2023-05-21T00:53:19.963Z,71.83
2023-05-21T00:54:23.232Z,38.55
2023-05-21T00:55:26.537Z,89.75
2023-05-21T00:56:29.832Z,94.87
2023-05-21T00:57:33.129Z,84.63
2023-05-21T00:58:36.414Z,-40.82
2023-05-21T00:59:39.696Z,71.83
2023-05-21T01:00:42.994Z,28.31
2023-05-21T01:01:46.284Z,66.71
2023-05-21T01:02:49.601Z,38.55
2023-05-21T01:03:53.109Z,15.51
2023-05-21T01:04:56.401Z,28.31
2023-05-21T01:05:59.700Z,102.55
2023-05-21T01:07:02.014Z,102.55
2023-05-21T01:08:05.316Z,51.35
2023-05-21T01:09:08.584Z,38.55
2023-05-21T01:10:11.900Z,-7.54
2023-05-21T01:11:15.180Z,79.51
2023-05-21T01:12:18.459Z,94.87
2023-05-21T01:13:21.768Z,140.95
2023-05-21T01:14:25.060Z,125.59
2023-05-21T01:15:28.332Z,28.31
2023-05-21T01:16:31.638Z,61.59
2023-05-21T01:17:34.937Z,117.91
2023-05-21T01:18:38.226Z,43.67
2023-05-21T01:19:41.514Z,84.63
2023-05-21T01:20:43.815Z,102.55
2023-05-21T01:21:47.106Z,153.75
2023-05-21T01:22:50.412Z,125.59
2023-05-21T01:23:53.684Z,94.87
2023-05-21T01:24:56.971Z,153.75
2023-05-21T01:26:00.289Z,140.95
2023-05-21T01:27:03.561Z,112.79
2023-05-21T01:28:06.850Z,153.75
2023-05-21T01:29:10.147Z,171.67
2023-05-21T01:30:13.443Z,130.71
2023-05-21T01:31:16.735Z,158.87
2023-05-21T01:32:20.016Z,230.55
2023-05-21T01:33:23.329Z,153.75
2023-05-21T01:34:25.636Z,194.71
2023-05-21T01:35:28.922Z,117.91
2023-05-21T01:36:32.215Z,130.71
2023-05-21T01:37:35.513Z,125.59
2023-05-21T01:38:38.800Z,130.71
2023-05-21T01:39:42.083Z,166.55
2023-05-21T01:40:45.374Z,176.79
2023-05-21T01:41:48.671Z,166.55
2023-05-21T01:43:55.251Z,140.95
2023-05-21T01:44:58.537Z,125.59
2023-05-21T01:46:01.825Z,189.59
2023-05-21T01:47:05.156Z,212.63
2023-05-21T01:48:07.440Z,217.75
2023-05-21T01:49:10.742Z,235.67
2023-05-21T01:50:14.017Z,235.67
2023-05-21T01:51:17.313Z,153.75
2023-05-21T01:52:20.601Z,153.75
2023-05-21T01:53:23.900Z,225.43
2023-05-21T01:54:26.226Z,171.67
2023-05-21T01:55:29.500Z,140.95
2023-05-21T01:56:32.807Z,181.91
2023-05-21T01:57:36.082Z,199.83
2023-05-21T01:58:39.396Z,207.51
2023-05-21T01:59:42.670Z,230.55
2023-05-21T02:00:45.968Z,181.91
2023-05-21T02:01:49.256Z,248.47
2023-05-21T02:02:52.575Z,225.43
2023-05-21T02:03:55.836Z,153.75
2023-05-21T02:04:59.539Z,284.31
2023-05-21T02:06:02.838Z,225.43
2023-05-21T02:07:06.120Z,225.43
2023-05-21T02:08:08.437Z,235.67
2023-05-21T02:09:11.716Z,258.71
2023-05-21T02:10:15.017Z,217.75
2023-05-21T02:11:18.314Z,240.79
2023-05-21T02:12:21.598Z,-324.97
2023-05-21T02:13:24.886Z,240.79
2023-05-21T02:14:28.185Z,307.35
2023-05-21T02:15:31.474Z,253.59
2023-05-21T02:16:34.777Z,235.67
2023-05-21T02:17:38.063Z,271.51
2023-05-21T02:18:41.357Z,240.79
2023-05-21T02:19:44.645Z,235.67
2023-05-21T02:20:47.938Z,176.79
2023-05-21T02:21:50.252Z,199.83
2023-05-21T02:22:53.592Z,166.55
2023-05-21T02:23:56.888Z,253.59
2023-05-21T02:25:00.194Z,199.83
2023-05-21T02:26:03.470Z,271.51
2023-05-21T02:27:06.761Z,217.75
2023-05-21T02:28:10.064Z,225.43
2023-05-21T02:29:13.355Z,312.47
2023-05-21T02:30:16.662Z,248.47
2023-05-21T02:31:19.935Z,248.47
2023-05-21T02:32:23.222Z,235.67
2023-05-21T02:33:26.510Z,284.31
2023-05-21T02:34:29.816Z,276.63
2023-05-21T02:35:32.126Z,276.63
2023-05-21T02:36:35.423Z,284.31
2023-05-21T02:37:38.706Z,258.71
2023-05-21T02:38:42.001Z,235.67
2023-05-21T02:39:45.289Z,-317.29
2023-05-21T02:40:48.568Z,289.43
2023-05-21T02:41:51.864Z,258.71
2023-05-21T02:42:55.147Z,258.71
2023-05-21T02:43:58.452Z,225.43
2023-05-21T02:45:01.739Z,276.63
2023-05-21T02:46:05.039Z,294.55
2023-05-21T02:47:08.319Z,235.67
2023-05-21T02:48:11.603Z,253.59
2023-05-21T02:49:13.913Z,258.71
2023-05-21T02:50:17.212Z,271.51
2023-05-21T02:51:20.517Z,240.79
2023-05-21T02:52:23.789Z,225.43
2023-05-21T02:53:27.111Z,235.67
2023-05-21T02:54:30.381Z,-171.59
2023-05-21T02:55:33.665Z,207.51
2023-05-21T02:56:36.978Z,294.55
2023-05-21T02:57:40.259Z,225.43
2023-05-21T02:58:43.564Z,217.75
2023-05-21T02:59:46.847Z,217.75
2023-05-21T03:00:50.131Z,130.71
2023-05-21T03:01:53.875Z,212.63
2023-05-21T03:02:56.180Z,212.63
2023-05-21T03:03:59.873Z,189.59
2023-05-21T03:05:03.174Z,302.23
2023-05-21T03:06:06.455Z,284.31
2023-05-21T03:07:09.761Z,276.63
2023-05-21T03:08:13.056Z,294.55
2023-05-21T03:09:16.346Z,312.47
2023-05-21T03:10:19.644Z,320.15
2023-05-21T03:11:22.908Z,289.43
2023-05-21T03:12:26.216Z,-304.49
2023-05-21T03:13:29.511Z,-324.97
2023-05-21T03:14:32.797Z,-312.17
2023-05-21T03:15:36.110Z,253.59
2023-05-21T03:16:38.402Z,-263.53
2023-05-21T03:17:41.679Z,-214.89
2023-05-21T03:18:44.981Z,-324.97
2023-05-21T03:19:48.265Z,-263.53
2023-05-21T03:20:51.562Z,-263.53
2023-05-21T03:21:54.863Z,-317.29
2023-05-21T03:22:58.157Z,-255.85
2023-05-21T03:24:01.452Z,-245.61
2023-05-21T03:25:04.727Z,-237.93
2023-05-21T03:26:08.021Z,-312.17
2023-05-21T03:27:11.322Z,284.31
2023-05-21T03:28:14.619Z,-312.17
2023-05-21T03:29:17.890Z,-312.17
2023-05-21T03:30:20.216Z,258.71
2023-05-21T03:31:23.485Z,294.55
2023-05-21T03:32:26.807Z,271.51
2023-05-21T03:33:30.100Z,-324.97
2023-05-21T03:34:33.379Z,320.15
2023-05-21T03:35:36.674Z,225.43
2023-05-21T03:36:39.964Z,271.51
2023-05-21T03:37:43.246Z,307.35
2023-05-21T03:38:46.536Z,276.63
2023-05-21T03:39:49.845Z,271.51
2023-05-21T03:40:53.117Z,271.51
2023-05-21T03:41:56.436Z,258.71
2023-05-21T03:43:00.136Z,302.23
2023-05-21T03:44:02.421Z,289.43
2023-05-21T03:45:05.741Z,-324.97
2023-05-21T03:46:09.019Z,-317.29
2023-05-21T03:47:12.316Z,307.35
2023-05-21T03:48:15.605Z,-299.37
2023-05-21T03:49:18.913Z,294.55
2023-05-21T03:50:22.191Z,-312.17
2023-05-21T03:51:25.489Z,-304.49
2023-05-21T03:52:28.775Z,-263.53
2023-05-21T03:53:32.069Z,-255.85
2023-05-21T03:54:35.379Z,-317.29
2023-05-21T03:55:38.651Z,325.27
2023-05-21T03:56:41.955Z,-304.49
2023-05-21T03:57:44.252Z,-322.42
2023-05-21T03:58:47.547Z,2.56
2023-05-21T03:59:50.826Z,-227.69
2023-05-21T04:00:54.268Z,-250.73
2023-05-21T04:01:57.564Z,-276.33
2023-05-21T04:03:00.847Z,-189.29
2023-05-21T04:04:04.152Z,-194.41
2023-05-21T04:05:07.456Z,-294.25
2023-05-21T04:06:10.741Z,-194.41
2023-05-21T04:07:14.017Z,-214.89
2023-05-21T04:08:17.339Z,-140.65
2023-05-21T04:09:20.615Z,-202.09
2023-05-21T04:10:23.894Z,-286.57
2023-05-21T04:11:26.228Z,-227.69
2023-05-21T04:12:29.497Z,-294.25
2023-05-21T04:13:32.778Z,-276.33
2023-05-21T04:14:36.083Z,-263.53
2023-05-21T04:15:39.382Z,-220.01
2023-05-21T04:16:42.664Z,-294.25
2023-05-21T04:17:45.950Z,-317.29
2023-05-21T04:18:49.241Z,-202.09
2023-05-21T04:19:52.547Z,-304.49
2023-05-21T04:20:55.833Z,-250.73
2023-05-21T04:21:59.115Z,-312.17
2023-05-21T04:23:02.447Z,-237.93
2023-05-21T04:24:05.712Z,-237.93
2023-05-21T04:25:08.011Z,-245.61
2023-05-21T04:26:11.300Z,-176.49
2023-05-21T04:27:14.596Z,-189.29
2023-05-21T04:28:17.885Z,-227.69
2023-05-21T04:29:21.200Z,-250.73
2023-05-21T04:31:27.785Z,-158.57
2023-05-21T04:32:31.055Z,-245.61
2023-05-21T04:33:34.348Z,-214.89
2023-05-21T04:34:37.642Z,-184.17
2023-05-21T04:35:40.943Z,-232.81
2023-05-21T04:36:44.220Z,-184.17
2023-05-21T04:37:47.512Z,-153.45
2023-05-21T04:38:49.816Z,-163.69
2023-05-21T04:39:53.116Z,-158.57
2023-05-21T04:40:56.409Z,-214.89
2023-05-21T04:41:59.713Z,-202.09
2023-05-21T04:43:03.009Z,-145.77
2023-05-21T04:44:06.286Z,-120.17
2023-05-21T04:45:09.565Z,-102.25
2023-05-21T04:46:12.863Z,0.16
2023-05-21T04:47:16.168Z,-158.57
2023-05-21T04:48:19.456Z,-115.05
2023-05-21T04:49:22.720Z,-140.65
2023-05-21T04:50:26.040Z,-145.77
2023-05-21T04:51:29.328Z,-140.65
2023-05-21T04:52:31.631Z,-176.49
2023-05-21T04:53:34.946Z,-227.69
2023-05-21T04:54:38.221Z,-145.77
2023-05-21T04:55:41.508Z,-127.85
2023-05-21T04:56:44.814Z,-202.09
2023-05-21T04:57:48.094Z,-227.69
2023-05-21T04:58:51.384Z,-158.57
2023-05-21T04:59:54.678Z,-153.45
2023-05-21T05:00:57.965Z,-176.49
2023-05-21T05:02:01.266Z,-153.45
2023-05-21T05:03:04.559Z,-189.29
2023-05-21T05:04:07.872Z,-153.45
2023-05-21T05:05:11.127Z,2.56
2023-05-21T05:06:13.442Z,-115.05
2023-05-21T05:07:16.755Z,2.56
2023-05-21T05:08:20.039Z,-132.97
2023-05-21T05:09:23.319Z,-89.45
2023-05-21T05:10:26.618Z,-127.85
2023-05-21T05:11:29.920Z,-102.25
2023-05-21T05:12:33.200Z,-120.17
2023-05-21T05:13:36.492Z,-102.25
2023-05-21T05:14:39.781Z,-102.25
2023-05-21T05:15:43.074Z,-102.25
2023-05-21T05:16:46.366Z,-89.45
2023-05-21T05:17:49.688Z,-63.85
2023-05-21T05:18:52.967Z,-63.85
2023-05-21T05:19:55.269Z,-89.45
2023-05-21T05:20:58.562Z,-76.65
2023-05-21T05:22:01.859Z,-38.25
2023-05-21T05:23:05.143Z,0.16
2023-05-21T05:24:08.428Z,-120.17
2023-05-21T05:25:11.726Z,-7.53
2023-05-21T05:26:14.035Z,-89.45
2023-05-21T05:27:17.341Z,5.28
2023-05-21T05:28:20.623Z,12.96
2023-05-21T05:29:23.920Z,-25.45
2023-05-21T05:30:27.200Z,-76.65
2023-05-21T05:31:30.513Z,-89.45
2023-05-21T05:32:33.818Z,-102.25
2023-05-21T05:33:37.089Z,-71.53
2023-05-21T05:34:40.389Z,-45.93
2023-05-21T05:35:43.658Z,-45.93
2023-05-21T05:36:46.974Z,-25.45
2023-05-21T05:37:50.257Z,-171.37
2023-05-21T05:38:53.566Z,-132.97
2023-05-21T05:39:55.844Z,-127.85
2023-05-21T05:40:59.162Z,-120.17
2023-05-21T05:42:02.440Z,-153.45
2023-05-21T05:43:05.712Z,-214.89
2023-05-21T05:44:09.029Z,-158.57
2023-05-21T05:45:12.322Z,-202.09
2023-05-21T05:46:15.590Z,-220.01
2023-05-21T05:47:18.889Z,-89.45
2023-05-21T05:48:22.200Z,-84.33
2023-05-21T05:49:25.527Z,-89.45
2023-05-21T05:50:28.771Z,-127.85
2023-05-21T05:51:32.066Z,-20.33
2023-05-21T05:52:35.360Z,-127.85
2023-05-21T05:53:37.655Z,-89.45
2023-05-21T05:54:40.952Z,-127.85
2023-05-21T05:55:44.249Z,-115.05
2023-05-21T05:56:47.550Z,-184.17
2023-05-21T05:57:50.824Z,-145.77
2023-05-21T05:58:54.123Z,-163.69
2023-05-21T05:59:57.418Z,-245.61
2023-05-21T06:01:01.026Z,-214.89
2023-05-21T06:02:04.325Z,-227.69
2023-05-21T06:03:07.617Z,-294.25
2023-05-21T06:04:10.912Z,-245.61
2023-05-21T06:05:14.200Z,-207.21
2023-05-21T06:06:17.483Z,-132.97
2023-05-21T06:07:19.804Z,-120.17
2023-05-21T06:08:23.097Z,-163.69
2023-05-21T06:09:26.377Z,-145.77
2023-05-21T06:10:29.679Z,-153.45
2023-05-21T06:11:32.981Z,-158.57
2023-05-21T06:12:36.252Z,-158.57
2023-05-21T06:13:39.566Z,-268.65
2023-05-21T06:14:42.831Z,-324.97
2023-05-21T06:15:46.146Z,289.43
2023-05-21T06:16:49.433Z,320.15
2023-05-21T06:17:52.717Z,276.63
2023-05-21T06:18:56.004Z,271.51
2023-05-21T06:19:59.318Z,240.79
2023-05-21T06:21:01.613Z,230.55
2023-05-21T06:22:04.913Z,194.71
2023-05-21T06:23:08.208Z,217.75
2023-05-21T06:24:11.486Z,194.71
2023-05-21T06:25:14.784Z,294.55
2023-05-21T06:26:18.084Z,-312.17
2023-05-21T06:27:21.360Z,302.23
2023-05-21T06:28:24.654Z,2.56
2023-05-21T06:29:27.959Z,248.47
2023-05-21T06:30:31.233Z,307.35
2023-05-21T06:31:34.543Z,2.56
2023-05-21T06:32:37.866Z,-312.17
2023-05-21T06:33:41.124Z,320.15
2023-05-21T06:34:43.439Z,320.15
2023-05-21T06:35:46.713Z,-324.97
2023-05-21T06:36:50.023Z,320.15
2023-05-21T06:37:53.297Z,307.35
2023-05-21T06:38:56.602Z,307.35
2023-05-21T06:39:59.898Z,271.51
2023-05-21T06:41:03.182Z,258.71
2023-05-21T06:42:06.482Z,-312.17
2023-05-21T06:43:09.793Z,284.31
2023-05-21T06:44:13.062Z,294.55
2023-05-21T06:45:16.350Z,199.83
2023-05-21T06:46:19.656Z,-299.37
2023-05-21T06:47:22.947Z,284.31
2023-05-21T06:48:25.243Z,289.43
2023-05-21T06:49:28.537Z,312.47
2023-05-21T06:50:31.823Z,-324.97
2023-05-21T06:51:35.112Z,271.51
2023-05-21T06:52:38.420Z,-324.97
2023-05-21T06:53:41.701Z,-299.37
2023-05-21T06:54:45.000Z,-312.17
2023-05-21T06:55:48.291Z,294.55
2023-05-21T06:56:51.583Z,-263.53
2023-05-21T06:57:54.867Z,-237.93
2023-05-21T06:58:58.319Z,258.71
2023-05-21T07:00:01.610Z,294.55
2023-05-21T07:01:04.907Z,194.71
2023-05-21T07:02:07.222Z,148.63
2023-05-21T07:03:10.503Z,51.35
2023-05-21T07:04:13.799Z,5.27
2023-05-21T07:05:17.077Z,51.35
2023-05-21T07:06:20.377Z,-12.66
2023-05-21T07:07:23.667Z,-51.06
2023-05-21T07:08:26.956Z,-22.9
2023-05-21T07:09:30.259Z,15.51
2023-05-21T07:10:33.556Z,20.63
2023-05-21T07:11:36.833Z,71.83
2023-05-21T07:12:40.141Z,94.87
2023-05-21T07:13:43.425Z,61.59
2023-05-21T07:14:46.730Z,176.79
2023-05-21T07:15:49.020Z,189.59
2023-05-21T07:16:52.326Z,84.63
2023-05-21T07:17:55.610Z,112.79
2023-05-21T07:18:58.906Z,176.79
2023-05-21T07:20:02.195Z,171.67
2023-05-21T07:21:05.487Z,199.83
2023-05-21T07:23:12.048Z,181.91
2023-05-21T07:24:15.368Z,207.51
2023-05-21T07:25:18.633Z,258.71
2023-05-21T07:26:21.932Z,271.51
2023-05-21T07:27:25.230Z,271.51
2023-05-21T07:28:28.511Z,253.59
2023-05-21T07:29:30.823Z,217.75
2023-05-21T07:30:34.130Z,302.23
2023-05-21T07:31:37.415Z,258.71
2023-05-21T07:32:40.716Z,199.83
2023-05-21T07:33:44.009Z,235.67
2023-05-21T07:34:47.302Z,284.31
2023-05-21T07:35:50.577Z,253.59
2023-05-21T07:36:53.881Z,284.31
2023-05-21T07:37:57.165Z,230.55
2023-05-21T07:39:00.456Z,248.47
2023-05-21T07:40:03.756Z,235.67
2023-05-21T07:41:07.045Z,253.59
2023-05-21T07:42:10.346Z,248.47
2023-05-21T07:43:12.659Z,240.79
2023-05-21T07:44:15.988Z,117.91
2023-05-21T07:45:19.245Z,135.83
2023-05-21T07:46:22.515Z,253.59
2023-05-21T07:47:25.821Z,248.47
2023-05-21T07:48:29.123Z,266.39
2023-05-21T07:49:32.399Z,212.63
2023-05-21T07:50:35.709Z,312.47
2023-05-21T07:51:38.986Z,271.51
2023-05-21T07:52:42.272Z,235.67
2023-05-21T07:53:45.579Z,284.31
2023-05-21T07:54:48.861Z,248.47
2023-05-21T07:55:52.166Z,212.63
2023-05-21T07:56:54.461Z,271.51
2023-05-21T07:57:57.756Z,307.35
2023-05-21T07:59:01.048Z,230.55
2023-05-21T08:00:04.338Z,302.23
2023-05-21T08:01:07.620Z,325.27
2023-05-21T08:02:10.919Z,248.47
2023-05-21T08:03:14.225Z,-312.17
2023-05-21T08:04:17.498Z,-317.29
2023-05-21T08:05:20.804Z,-324.97
2023-05-21T08:06:24.101Z,320.15
2023-05-21T08:07:27.401Z,307.35
2023-05-21T08:08:30.673Z,289.43
2023-05-21T08:09:33.992Z,284.31
2023-05-21T08:10:36.280Z,312.47
2023-05-21T08:11:39.571Z,320.15
2023-05-21T08:12:42.849Z,325.27
2023-05-21T08:13:46.151Z,320.15
2023-05-21T08:14:49.462Z,-324.97
2023-05-21T08:15:52.721Z,-299.37
2023-05-21T08:16:56.012Z,294.55
2023-05-21T08:17:59.321Z,-317.29
2023-05-21T08:19:02.594Z,-312.17
2023-05-21T08:20:05.900Z,284.31
2023-05-21T08:21:09.179Z,307.35
2023-05-21T08:22:12.478Z,-299.37
2023-05-21T08:23:15.776Z,-276.33
2023-05-21T08:24:18.080Z,284.31
2023-05-21T08:25:21.367Z,-317.29
2023-05-21T08:26:24.683Z,320.15
2023-05-21T08:27:27.956Z,-286.57
2023-05-21T08:28:31.256Z,-312.17
2023-05-21T08:29:34.559Z,-184.17
2023-05-21T08:30:37.834Z,-250.73
2023-05-21T08:31:41.139Z,-312.17
2023-05-21T08:32:44.410Z,-276.33
2023-05-21T08:33:47.704Z,-227.69
2023-05-21T08:34:51.013Z,-312.17
2023-05-21T08:35:54.281Z,-299.37
2023-05-21T08:36:57.592Z,-250.73
2023-05-21T08:39:03.173Z,-237.93
2023-05-21T08:40:06.468Z,-255.85
2023-05-21T08:41:09.783Z,-214.89
2023-05-21T08:42:13.061Z,-304.49
2023-05-21T08:43:16.360Z,-245.61
2023-05-21T08:44:19.649Z,-245.61
2023-05-21T08:45:22.909Z,-232.81
2023-05-21T08:46:26.221Z,-207.21
2023-05-21T08:47:29.517Z,-237.93
2023-05-21T08:48:32.827Z,-263.53
2023-05-21T08:49:36.130Z,-294.25
2023-05-21T08:50:39.398Z,-232.81
2023-05-21T08:51:41.705Z,-263.53
2023-05-21T08:52:44.995Z,-250.73
2023-05-21T08:53:48.279Z,-268.65
2023-05-21T08:54:51.581Z,-237.93
2023-05-21T08:55:54.874Z,-237.93
2023-05-21T08:56:58.166Z,-214.89
2023-05-21T08:58:00.473Z,-250.73
2023-05-21T08:59:03.777Z,-189.29
2023-05-21T09:00:07.064Z,-237.93
2023-05-21T09:01:10.356Z,-250.73
2023-05-21T09:02:13.651Z,-220.01
2023-05-21T09:03:16.961Z,-207.21
2023-05-21T09:04:20.235Z,-163.69
2023-05-21T09:05:23.597Z,-202.09
2023-05-21T09:06:26.818Z,-184.17
2023-05-21T09:07:30.102Z,-237.93
2023-05-21T09:08:33.416Z,-202.09
2023-05-21T09:09:36.691Z,-202.09
2023-05-21T09:10:39.996Z,-245.61
2023-05-21T09:11:42.326Z,-232.81
2023-05-21T09:12:45.605Z,-158.57
2023-05-21T09:13:48.869Z,-202.09
2023-05-21T09:14:52.176Z,-237.93
2023-05-21T09:15:55.461Z,-202.09
2023-05-21T09:16:58.765Z,-171.37
2023-05-21T09:18:02.382Z,-232.81
2023-05-21T09:19:05.641Z,-227.69
2023-05-21T09:20:08.925Z,-250.73
2023-05-21T09:21:12.223Z,-207.21
2023-05-21T09:22:15.573Z,-158.57
2023-05-21T09:23:18.969Z,-163.69
2023-05-21T09:24:22.217Z,-176.49
2023-05-21T09:25:24.502Z,-263.53
2023-05-21T09:26:27.712Z,-214.89
2023-05-21T09:27:31.069Z,-232.81
2023-05-21T09:28:34.290Z,-207.21
2023-05-21T09:29:37.575Z,-220.01
2023-05-21T09:30:40.857Z,-202.09
2023-05-21T09:31:44.152Z,-153.45
2023-05-21T09:32:47.441Z,-220.01
2023-05-21T09:33:50.756Z,-194.41
2023-05-21T09:34:54.100Z,-153.45
2023-05-21T09:35:57.425Z,-176.49
2023-05-21T09:37:00.788Z,-153.45
2023-05-21T09:38:04.036Z,-127.85
2023-05-21T09:39:06.215Z,-158.57
2023-05-21T09:40:09.502Z,-140.65
2023-05-21T09:41:12.808Z,-153.45
2023-05-21T09:42:16.099Z,-202.09
2023-05-21T09:43:19.389Z,-163.69
2023-05-21T09:44:22.674Z,-145.77
2023-05-21T09:45:25.996Z,-176.49
2023-05-21T09:46:29.254Z,-227.69
2023-05-21T09:47:32.543Z,-202.09
2023-05-21T09:48:35.841Z,-145.77
2023-05-21T09:49:39.242Z,-207.21
2023-05-21T09:50:42.418Z,-171.37
2023-05-21T09:51:45.760Z,-207.21
2023-05-21T09:52:48.023Z,-184.17
2023-05-21T09:53:51.315Z,-189.29
2023-05-21T09:54:54.663Z,-214.88
2023-05-21T09:55:57.895Z,274.05
2023-05-21T09:57:01.199Z,-255.86
2023-05-21T09:58:04.599Z,-181.62
2023-05-21T09:59:07.773Z,43.67
2023-05-21T10:00:11.091Z,66.71
2023-05-21T10:01:14.399Z,140.95
2023-05-21T10:02:17.659Z,189.59
2023-05-21T10:03:20.942Z,176.79
2023-05-21T10:04:24.225Z,271.51
2023-05-21T10:05:27.543Z,312.47
2023-05-21T10:06:29.886Z,-317.29
2023-05-21T10:07:33.133Z,-312.17
2023-05-21T10:08:36.422Z,-299.37
2023-05-21T10:09:39.701Z,-294.25
2023-05-21T10:10:42.986Z,-255.85
2023-05-21T10:11:46.300Z,-250.73
2023-05-21T10:12:49.571Z,-276.33
2023-05-21T10:13:52.866Z,-276.33
2023-05-21T10:14:56.835Z,-268.65
2023-05-21T10:16:00.109Z,-214.89
2023-05-21T10:18:06.797Z,-237.93
2023-05-21T10:19:10.036Z,-194.41
2023-05-21T10:20:12.300Z,-163.69
2023-05-21T10:21:15.605Z,-140.65
2023-05-21T10:22:18.891Z,-115.05
2023-05-21T10:23:22.193Z,18.08
2023-05-21T10:24:25.483Z,-153.45
2023-05-21T10:25:28.763Z,-153.45
2023-05-21T10:26:32.078Z,-71.53
2023-05-21T10:27:35.412Z,-45.93
2023-05-21T10:28:38.673Z,-163.69
2023-05-21T10:29:41.931Z,-12.65
2023-05-21T10:30:45.240Z,-153.45
2023-05-21T10:31:48.702Z,-102.25
2023-05-21T10:32:51.798Z,-45.93
2023-05-21T10:33:54.294Z,-202.09
2023-05-21T10:34:57.580Z,-263.53
2023-05-21T10:36:00.806Z,-245.61
2023-05-21T10:37:04.075Z,-237.93
2023-05-21T10:38:07.414Z,-202.09
2023-05-21T10:39:10.673Z,-189.29
2023-05-21T10:40:14.037Z,-214.89
2023-05-21T10:41:17.163Z,-237.93
2023-05-21T10:42:20.495Z,-250.73
2023-05-21T10:43:23.756Z,-220.01
2023-05-21T10:44:27.050Z,-207.21
2023-05-21T10:45:30.338Z,-214.89
2023-05-21T10:46:33.628Z,-299.37
2023-05-21T10:47:35.936Z,-324.97
2023-05-21T10:48:39.228Z,294.55
2023-05-21T10:49:42.510Z,325.27
2023-05-21T10:50:45.818Z,-117.62
2023-05-21T10:51:49.111Z,302.22
2023-05-21T10:52:52.413Z,112.78
2023-05-21T10:53:55.690Z,41.1
2023-05-21T10:54:58.976Z,-107.39
2023-05-21T10:56:02.279Z,-43.4
2023-05-21T10:57:05.546Z,-112.52
2023-05-21T10:58:08.851Z,322.68
2023-05-21T10:59:12.143Z,276.6
2023-05-21T11:00:15.443Z,174.2
2023-05-21T11:01:17.765Z,69.24
2023-05-21T11:02:21.023Z,53.88
2023-05-21T11:03:24.358Z,-63.89
2023-05-21T11:04:27.628Z,2.68
2023-05-21T11:05:30.917Z,2.68
2023-05-21T11:06:34.200Z,-20.37
2023-05-21T11:07:37.500Z,-28.05
2023-05-21T11:08:40.817Z,-107.41
2023-05-21T11:09:44.077Z,-163.73
2023-05-21T11:10:47.376Z,-301.97
2023-05-21T11:11:50.660Z,-314.77
2023-05-21T11:12:53.957Z,253.55
2023-05-21T11:13:57.256Z,-322.45
2023-05-21T11:14:59.978Z,274.03
2023-05-21T11:16:03.251Z,261.23
2023-05-21T11:17:06.547Z,240.75
2023-05-21T11:18:09.839Z,294.51
2023-05-21T11:19:13.121Z,-307.09
2023-05-21T11:20:16.417Z,286.83
2023-05-21T11:21:19.743Z,307.31
2023-05-21T11:22:23.017Z,-301.97
2023-05-21T11:23:26.296Z,-307.09
2023-05-21T11:24:29.573Z,-322.45
2023-05-21T11:25:32.886Z,-327.57
2023-05-21T11:26:36.176Z,274.03
2023-05-21T11:27:39.482Z,299.63
2023-05-21T11:28:41.765Z,-314.77
2023-05-21T11:29:45.067Z,-307.09
2023-05-21T11:30:48.342Z,-327.57
2023-05-21T11:31:51.643Z,314.99
2023-05-21T11:32:54.951Z,314.99
2023-05-21T11:33:58.236Z,-314.77
2023-05-21T11:35:01.511Z,-286.61
2023-05-21T11:36:04.819Z,-294.29
2023-05-21T11:37:08.108Z,-281.49
2023-05-21T11:38:11.412Z,-281.49
2023-05-21T11:39:14.707Z,-266.13
2023-05-21T11:40:17.999Z,-220.05
2023-05-21T11:41:21.283Z,-240.53
2023-05-21T11:42:23.585Z,-184.21
2023-05-21T11:43:26.935Z,-176.53
2023-05-21T11:44:30.157Z,-168.85
2023-05-21T11:45:33.475Z,-191.89
2023-05-21T11:46:36.746Z,-156.05
2023-05-21T11:47:40.066Z,-197.01
2023-05-21T11:48:43.326Z,-156.05
2023-05-21T11:49:46.636Z,-204.69
2023-05-21T11:50:49.928Z,-204.69
2023-05-21T11:51:53.205Z,-253.33
2023-05-21T11:52:56.501Z,-212.37
2023-05-21T11:54:00.224Z,-140.69
2023-05-21T11:55:03.575Z,-148.37
2023-05-21T11:56:05.844Z,-92.05
2023-05-21T11:57:09.148Z,-112.53
2023-05-21T11:58:12.424Z,-191.89
2023-05-21T11:59:15.715Z,-163.73
2023-05-21T12:00:19.008Z,314.99
2023-05-21T12:01:22.305Z,299.63
2023-05-21T12:02:25.682Z,-314.77
2023-05-21T12:03:28.899Z,286.83
2023-05-21T12:04:32.180Z,253.55
2023-05-21T12:05:35.471Z,279.15
2023-05-21T12:06:38.776Z,-322.45
2023-05-21T12:07:42.063Z,-204.69
2023-05-21T12:09:48.644Z,-273.81
2023-05-21T12:10:50.942Z,-273.81
2023-05-21T12:11:54.239Z,-273.81
2023-05-21T12:12:57.532Z,-245.65
2023-05-21T12:14:00.827Z,-176.53
2023-05-21T12:15:04.158Z,-140.69
2023-05-21T12:16:07.398Z,-92.05
2023-05-21T12:17:10.712Z,-63.89
2023-05-21T12:18:13.982Z,-48.53
2023-05-21T12:19:17.308Z,-120.21
2023-05-21T12:20:20.574Z,-112.53
2023-05-21T12:21:23.864Z,-76.69
2023-05-21T12:22:27.185Z,-40.85
2023-05-21T12:23:30.439Z,25.72
2023-05-21T12:24:32.751Z,2.68
2023-05-21T12:25:36.035Z,10.36
2023-05-21T12:26:39.339Z,-5.01
2023-05-21T12:27:42.638Z,69.24
2023-05-21T12:28:45.928Z,53.88
2023-05-21T12:29:48.236Z,120.44
2023-05-21T12:30:51.556Z,143.48
2023-05-21T12:31:54.830Z,115.32
2023-05-21T12:32:58.116Z,115.32
2023-05-21T12:34:01.401Z,84.6
2023-05-21T12:35:04.736Z,107.64
2023-05-21T12:37:11.303Z,120.44
2023-05-21T12:38:14.570Z,69.24
2023-05-21T12:39:17.885Z,158.84
2023-05-21T12:40:21.136Z,166.52
2023-05-21T12:41:24.449Z,181.88
2023-05-21T12:42:27.740Z,158.84
2023-05-21T12:43:30.065Z,135.8
2023-05-21T12:44:33.363Z,143.48
2023-05-21T12:45:36.654Z,189.56
2023-05-21T12:46:39.937Z,166.52
2023-05-21T12:47:43.232Z,143.48
2023-05-21T12:48:46.514Z,174.2
2023-05-21T12:49:49.808Z,204.92
2023-05-21T12:50:53.100Z,268.92
2023-05-21T12:51:56.391Z,291.96
2023-05-21T12:52:59.686Z,284.28
2023-05-21T12:54:02.966Z,-325
2023-05-21T12:55:06.267Z,-227.72
2023-05-21T12:56:09.541Z,-202.12
2023-05-21T12:57:11.863Z,-268.68
2023-05-21T12:58:15.152Z,-235.4
2023-05-21T12:59:18.433Z,-291.72
2023-05-21T13:00:21.746Z,-227.72
2023-05-21T13:01:25.069Z,-235.4
2023-05-21T13:02:28.314Z,-220.04
2023-05-21T13:04:34.921Z,-135.56
2023-05-21T13:05:38.188Z,-261
2023-05-21T13:06:41.500Z,-243.08
2023-05-21T13:07:44.775Z,-209.8
2023-05-21T13:08:48.084Z,-145.8